CheckWX is a tool to help pilots better visualize weather data.  It is not intended as a substitute for an official pre-flight weather briefing.

06:50:22 UTC

KLEX METAR
Blue Grass Airport
Lexington, Kentucky, USA
Current

56 mins ago

KLEX 230554Z 17007KT 10SM CLR 15/06 A3007 RMK AO2 SLP176 T01500056 10222 20150 58006
Observed
Apr-23 @ 05:54 UTC
Wind
  • 170° at 7 KTS
Visibility
10 SM
Flight Rules
VFR
Cloud Levels
  • Clear skies
Temperature
15°C / 59°F
Dewpoint
C / 43°F
Humidity
55%
Altimeter
30.07" Hg
Pressure
1018.32 hPa
Previous

2 hours ago

KLEX 230454Z 15006KT 10SM CLR 17/05 A3008 RMK AO2 SLP179 T01670050 402440072
Observed
Apr-23 @ 04:54 UTC
Wind
  • 150° at 6 KTS
Visibility
10 SM
Flight Rules
VFR
Cloud Levels
  • Clear skies
Temperature
17°C / 63°F
Dewpoint
C / 41°F
Humidity
45%
Altimeter
30.08" Hg
Pressure
1018.62 hPa
Previous

3 hours ago

KLEX 230354Z 15006KT 10SM FEW002 17/05 A3008 RMK AO2 SLP181 T01720050
Observed
Apr-23 @ 03:54 UTC
Wind
  • 150° at 6 KTS
Visibility
10 SM
Flight Rules
VFR
Cloud Levels
  • Few at 200' AGL
Temperature
17°C / 63°F
Dewpoint
C / 41°F
Humidity
45%
Altimeter
30.08" Hg
Pressure
1018.62 hPa